Arm, Mississippi
Current Conditions -  °F | °C
As of 12:15 PM on Sunday 25 Jan 2015 (Local Time) from K1R7 Reporting Station
Clear Clear  
Wind Chill: 63°   Ceiling: Unl
Heat Index: 63°   Visibility: NA
Dew Point: 39°   Wind: 15mph
Humidity: 42%   Direction: 200°SSW
Pressure: 29.88"   Gusts: 22mph
Location:  31.5868°N, 90.03°W
Report Text: K1R7 251815Z AUTO 20013G19KT CLR 17/04 A2988 RMK AO2
Loading
Personal Weather Stations






























Interactive Weather Map New forecast layout! Learn more

10-Day Weather Forecast

Advertisements
Track Severe Weather on mobile